Base ULM de Kerfot

FR-0330 · Côtes-d'Armor, Bretagna, Francia

Storia di METAR FR-0330 · Base ULM de Kerfot

Di seguito sono riportati i METAR degli ultimi giorni. Seleziona un anno per sfogliare i METAR più vecchi, dall'anno 2007 in poi.

18 luglio 2024

Tempo Codice Tempo meteorologico Temp. Vista Base nuvolosa Vento METAR/SPECI
10:30
V
20 °C 10 km+ - 110° 110° 3 kt METAR LFRT 180830Z AUTO 11003KT 070V140 CAVOK 20/17 Q1019
10:00
V
20 °C 10 km+ - Var Var 3 kt METAR LFRT 180800Z AUTO VRB03KT CAVOK 20/18 Q1019
09:30
V
19 °C 10 km+ - 160° 160° 4 kt METAR LFRT 180730Z AUTO 16004KT CAVOK 19/18 Q1019
09:00
V
17 °C 10 km+ - 160° 160° 4 kt METAR LFRT 180700Z AUTO 16004KT CAVOK 17/17 Q1019
08:30
V
16 °C 10 km+ - 160° 160° 3 kt METAR LFRT 180630Z AUTO 16003KT 130V190 CAVOK 16/16 Q1019
08:00
V
16 °C 10 km+ - Var Var 2 kt METAR LFRT 180600Z AUTO VRB02KT CAVOK 16/15 Q1019
07:30
V
15 °C 10 km+ - Var Var 2 kt METAR LFRT 180530Z AUTO VRB02KT CAVOK 15/15 Q1019
07:00
V
15 °C 10 km+ - 140° 140° 2 kt METAR LFRT 180500Z AUTO 14002KT CAVOK 15/15 Q1019
06:30
I
15 °C 4,6 km - 360° 360° 0 kt METAR LFRT 180430Z AUTO 00000KT 4600 BR NSC 15/14 Q1019
06:00
I
15 °C 4,1 km - 240° 240° 2 kt METAR LFRT 180400Z AUTO 24002KT 4100 BR NSC 15/14 Q1019
05:30
M
15 °C 7 km - 250° 250° 2 kt METAR LFRT 180330Z AUTO 25002KT 7000 NSC 15/14 Q1019
05:00
V
15 °C 10 km+ - 250° 250° 3 kt METAR LFRT 180300Z AUTO 25003KT CAVOK 15/14 Q1019
04:30
V
15 °C 10 km+ - 250° 250° 3 kt METAR LFRT 180230Z AUTO 25003KT CAVOK 15/14 Q1019
04:00
V
15 °C 10 km+ - 250° 250° 2 kt METAR LFRT 180200Z AUTO 25002KT CAVOK 15/14 Q1019
03:30
V
15 °C 10 km+ - 260° 260° 2 kt METAR LFRT 180130Z AUTO 26002KT CAVOK 15/14 Q1020
03:00
V
15 °C 10 km+ - 290° 290° 2 kt METAR LFRT 180100Z AUTO 29002KT CAVOK 15/14 Q1020
02:30
V
16 °C 10 km+ - 230° 230° 1 kt METAR LFRT 180030Z AUTO 23001KT CAVOK 16/15 Q1020
02:00
V
16 °C 10 km+ - Var Var 2 kt METAR LFRT 180000Z AUTO VRB02KT CAVOK 16/14 Q1020
01:30
V
16 °C 10 km+ - Var Var 1 kt METAR LFRT 172330Z AUTO VRB01KT CAVOK 16/15 Q1020
01:00
V
16 °C 10 km+ - 060° 060° 3 kt METAR LFRT 172300Z AUTO 06003KT CAVOK 16/15 Q1020
00:30
V
16 °C 10 km+ - Var Var 3 kt METAR LFRT 172230Z AUTO VRB03KT CAVOK 16/15 Q1020
00:00
V
16 °C 10 km+ - 050° 050° 3 kt METAR LFRT 172200Z AUTO 05003KT CAVOK 16/15 Q1020

17 luglio 2024

Tempo Codice Tempo meteorologico Temp. Vista Base nuvolosa Vento METAR/SPECI
23:30
V
16 °C 10 km+ - 060° 060° 4 kt METAR LFRT 172130Z AUTO 06004KT CAVOK 16/14 Q1020
23:00
V
16 °C 10 km+ - 070° 070° 3 kt METAR LFRT 172100Z AUTO 07003KT CAVOK 16/14 Q1020
22:30
V
16 °C 10 km+ 19.000 ft 050° 050° 5 kt METAR LFRT 172030Z AUTO 05005KT 9999 FEW046 OVC190 16/14 Q1020
22:00
V
17 °C 10 km+ 19.000 ft 040° 040° 5 kt METAR LFRT 172000Z AUTO 04005KT 9999 FEW049 BKN190 OVC210 17/14 Q1020
21:30
V
17 °C 10 km+ - 040° 040° 6 kt METAR LFRT 171930Z AUTO 04006KT CAVOK 17/14 Q1020
21:00
V
17 °C 10 km+ - 050° 050° 8 kt METAR LFRT 171900Z AUTO 05008KT CAVOK 17/13 Q1020
20:30
V
18 °C 10 km+ - 050° 050° 10 kt METAR LFRT 171830Z AUTO 05010KT 9999 FEW045 18/14 Q1020
20:00
V
19 °C 10 km+ - 050° 050° 10 kt METAR LFRT 171800Z AUTO 05010KT 9999 FEW045 19/14 Q1020
19:30
V
19 °C 10 km+ - 050° 050° 10 kt METAR LFRT 171730Z AUTO 05010KT 9999 SCT046 19/14 Q1020
19:00
V
19 °C 10 km+ - 060° 060° 10 kt METAR LFRT 171700Z AUTO 06010KT CAVOK 19/14 Q1020
18:30
V
19 °C 10 km+ - 040° 040° 10 kt METAR LFRT 171630Z AUTO 04010KT CAVOK 19/15 Q1020
18:00
V
20 °C 10 km+ 4.800 ft 050° 050° 10 kt METAR LFRT 171600Z AUTO 05010KT 9999 BKN048 20/15 Q1020
17:30
V
20 °C 10 km+ - 050° 050° 10 kt METAR LFRT 171530Z AUTO 05010KT 020V080 9999 FEW049 20/15 Q1021
17:00
V
21 °C 10 km+ - 050° 050° 9 kt METAR LFRT 171500Z AUTO 05009KT 020V090 9999 FEW046 21/15 Q1021
16:30
V
20 °C 10 km+ 4.600 ft 040° 040° 7 kt METAR LFRT 171430Z AUTO 04007KT 010V080 9999 FEW038 BKN046 20/15 Q1021
16:00
V
19 °C 10 km+ 4.200 ft 060° 060° 9 kt METAR LFRT 171400Z AUTO 06009KT 9999 BKN042 19/15 Q1021
15:30
V
20 °C 10 km+ 4.400 ft 070° 070° 8 kt METAR LFRT 171330Z AUTO 07008KT 040V130 9999 FEW024 BKN044 20/14 Q1021
15:00
V
21 °C 10 km+ 4.600 ft 120° 120° 4 kt METAR LFRT 171300Z AUTO 12004KT 070V170 9999 FEW026 BKN046 21/15 Q1021
14:30
V
19 °C 10 km+ 4.200 ft 060° 060° 8 kt METAR LFRT 171230Z AUTO 06008KT 9999 OVC042 19/15 Q1021
14:00
V
19 °C 10 km+ 4.000 ft 050° 050° 8 kt METAR LFRT 171200Z AUTO 05008KT 9999 FEW018 BKN040 19/15 Q1021
13:30
V
19 °C 10 km+ 3.600 ft 040° 040° 8 kt METAR LFRT 171130Z AUTO 04008KT 020V080 9999 FEW017 OVC036 19/15 Q1021
13:00
V
18 °C 10 km+ 3.100 ft 050° 050° 8 kt METAR LFRT 171100Z AUTO 05008KT 010V090 9999 FEW024 BKN031 OVC039 18/14 Q1021
12:30
V
19 °C 10 km+ 3.400 ft 080° 080° 5 kt METAR LFRT 171030Z AUTO 08005KT 030V130 9999 BKN034 19/14 Q1021
12:00
V
18 °C 10 km+ 3.300 ft 060° 060° 4 kt METAR LFRT 171000Z AUTO 06004KT 030V090 9999 SCT027 BKN033 18/14 Q1022
11:30
M
17 °C 10 km+ 2.900 ft 060° 060° 5 kt METAR LFRT 170930Z AUTO 06005KT 030V120 9999 FEW018 OVC029 17/13 Q1021
11:00
M
18 °C 10 km+ 2.500 ft Var Var 2 kt METAR LFRT 170900Z AUTO VRB02KT 9999 BKN025 BKN031 18/13 Q1021
10:30
M
17 °C 10 km+ 2.600 ft Var Var 2 kt METAR LFRT 170830Z AUTO VRB02KT 9999 OVC026 17/14 Q1022
10:00
M
16 °C 10 km+ 2.900 ft Var Var 2 kt METAR LFRT 170800Z AUTO VRB02KT 9999 OVC029 16/14 Q1022
09:30
M
17 °C 10 km+ 1.100 ft 360° 360° 0 kt METAR LFRT 170730Z AUTO 00000KT 9999 BKN011 BKN030 17/15 Q1022
09:00
V
16 °C 10 km+ 3.100 ft 300° 300° 3 kt METAR LFRT 170700Z AUTO 30003KT 260V340 9999 FEW008 BKN031 16/15 Q1021
08:30
V
15 °C 10 km+ 3.200 ft 260° 260° 3 kt METAR LFRT 170630Z AUTO 26003KT 220V280 9999 BKN032 15/14 Q1021
08:00
V
14 °C 10 km+ 3.300 ft 240° 240° 4 kt METAR LFRT 170600Z AUTO 24004KT 9999 BKN033 14/13 Q1021
07:30
V
14 °C 10 km+ 3.300 ft 280° 280° 4 kt METAR LFRT 170530Z AUTO 28004KT 9999 OVC033 14/13 Q1021
07:00
V
14 °C 10 km+ 3.300 ft 260° 260° 5 kt METAR LFRT 170500Z AUTO 26005KT 9999 OVC033 14/13 Q1021
06:30
V
14 °C 10 km+ 3.200 ft 250° 250° 4 kt METAR LFRT 170430Z AUTO 25004KT 9999 FEW018 OVC032 14/13 Q1021
06:00
M
13 °C 10 km+ 2.000 ft 230° 230° 4 kt METAR LFRT 170400Z AUTO 23004KT 9999 SCT011 BKN020 OVC033 13/13 Q1021
05:30
M
13 °C 10 km+ 1.100 ft 250° 250° 5 kt METAR LFRT 170330Z AUTO 25005KT 9999 BKN011 BKN019 13/12 Q1020
05:00
V
13 °C 10 km+ - 240° 240° 4 kt METAR LFRT 170300Z AUTO 24004KT CAVOK 13/12 Q1020
04:30
V
13 °C 10 km+ - 240° 240° 4 kt METAR LFRT 170230Z AUTO 24004KT CAVOK 13/12 Q1020
04:00
V
13 °C 10 km+ - 230° 230° 4 kt METAR LFRT 170200Z AUTO 23004KT 9999 FEW010 13/12 Q1020
03:30
V
13 °C 10 km+ - 260° 260° 4 kt METAR LFRT 170130Z AUTO 26004KT CAVOK 13/12 Q1020
03:00
V
13 °C 10 km+ - 270° 270° 5 kt METAR LFRT 170100Z AUTO 27005KT 9999 FEW008 13/12 Q1020
02:30
V
13 °C 10 km+ - 250° 250° 6 kt METAR LFRT 170030Z AUTO 25006KT CAVOK 13/12 Q1020
02:00
V
13 °C 10 km+ - 260° 260° 5 kt METAR LFRT 170000Z AUTO 26005KT 9999 FEW011 13/12 Q1020
01:30
V
14 °C 10 km+ - 270° 270° 4 kt METAR LFRT 162330Z AUTO 27004KT 9999 FEW011 14/13 Q1020
01:00
M
14 °C 10 km+ 1.000 ft 280° 280° 5 kt METAR LFRT 162300Z AUTO 28005KT 9999 BKN010 14/13 Q1020
00:30
V
14 °C 10 km+ - 270° 270° 5 kt METAR LFRT 162230Z AUTO 27005KT CAVOK 14/12 Q1020
00:00
V
14 °C 10 km+ - 270° 270° 4 kt METAR LFRT 162200Z AUTO 27004KT CAVOK 14/12 Q1020

16 luglio 2024

Tempo Codice Tempo meteorologico Temp. Vista Base nuvolosa Vento METAR/SPECI
23:30
V
14 °C 10 km+ - 280° 280° 6 kt METAR LFRT 162130Z AUTO 28006KT CAVOK 14/12 Q1020
23:00
V
15 °C 10 km+ - 290° 290° 5 kt METAR LFRT 162100Z AUTO 29005KT CAVOK 15/12 Q1019
22:30
V
15 °C 10 km+ - 300° 300° 8 kt METAR LFRT 162030Z AUTO 30008KT CAVOK 15/12 Q1019
22:00
V
16 °C 10 km+ - 300° 300° 4 kt METAR LFRT 162000Z AUTO 30004KT CAVOK 16/12 Q1019
21:30
V
17 °C 10 km+ - 290° 290° 7 kt METAR LFRT 161930Z AUTO 29007KT CAVOK 17/12 Q1018
21:00
V
18 °C 10 km+ - 290° 290° 9 kt METAR LFRT 161900Z AUTO 29009KT 9999 FEW045 SCT240 18/13 Q1018
20:30
V
19 °C 10 km+ 4.500 ft 310° 310° 9 kt METAR LFRT 161830Z AUTO 31009KT 9999 BKN045 19/13 Q1018
20:00
V
18 °C 10 km+ 4.800 ft 290° 290° 10 kt METAR LFRT 161800Z AUTO 29010KT 250V310 9999 SCT040 BKN048 OVC240 18/12 Q1018
19:30
V
18 °C 10 km+ 4.200 ft 300° 300° 10 kt METAR LFRT 161730Z AUTO 30010KT 9999 BKN042 OVC052 18/12 Q1018
19:00
V
19 °C 10 km+ - 290° 290° 9 kt METAR LFRT 161700Z AUTO 29009KT 270V330 9999 FEW040 SCT220 19/13 Q1017
18:30
V
20 °C 10 km+ 4.500 ft 300° 300° 9 kt METAR LFRT 161630Z AUTO 30009KT 270V330 9999 SCT037 BKN045 OVC052 20/13 Q1017
18:00
V
20 °C 10 km+ 3.700 ft 300° 300° 8 kt METAR LFRT 161600Z AUTO 30008KT 260V330 9999 BKN037 OVC046 20/13 Q1017
17:30
V
21 °C 10 km+ 4.700 ft 300° 300° 9 kt METAR LFRT 161530Z AUTO 30009KT 260V350 9999 FEW036 BKN047 BKN060 21/12 Q1017
17:00
V
21 °C 10 km+ 3.700 ft 290° 290° 9 kt METAR LFRT 161500Z AUTO 29009KT 250V330 9999 BKN037 BKN044 OVC056 21/13 Q1017
16:30
V
20 °C 10 km+ 4.400 ft 310° 310° 9 kt METAR LFRT 161430Z AUTO 31009KT 260V340 9999 SCT038 BKN044 BKN054 20/13 Q1017
16:00
V
21 °C 10 km+ 4.100 ft 290° 290° 7 kt METAR LFRT 161400Z AUTO 29007KT 250V330 9999 BKN041 BKN052 21/13 Q1016
15:30
V
21 °C 10 km+ 3.900 ft 280° 280° 9 kt METAR LFRT 161330Z AUTO 28009KT 240V310 9999 BKN039 BKN046 21/12 Q1016
15:00
V
21 °C 10 km+ 3.600 ft 290° 290° 8 kt METAR LFRT 161300Z AUTO 29008KT 250V340 9999 BKN036 BKN043 21/13 Q1016
14:30
V
21 °C 10 km+ 5.600 ft 280° 280° 10 kt METAR LFRT 161230Z AUTO 28010KT 9999 FEW033 SCT049 BKN056 21/14 Q1016
14:00
V
19 °C 10 km+ 4.900 ft 270° 270° 8 kt METAR LFRT 161200Z AUTO 27008KT 9999 FEW034 BKN049 OVC060 19/13 Q1016
13:30
V
19 °C 10 km+ 3.400 ft 300° 300° 10 kt METAR LFRT 161130Z AUTO 30010KT 270V330 9999 BKN034 OVC052 19/13 Q1016
13:00
V
19 °C 10 km+ 3.100 ft 280° 280° 9 kt METAR LFRT 161100Z AUTO 28009KT 250V310 9999 BKN031 BKN037 BKN044 19/12 Q1015
12:30
V
19 °C 10 km+ 3.800 ft 250° 250° 10 kt METAR LFRT 161030Z AUTO 25010KT 9999 SCT031 BKN038 OVC049 19/13 Q1015
12:00
V
19 °C 10 km+ 4.700 ft 280° 280° 10 kt METAR LFRT 161000Z AUTO 28010KT 9999 SCT029 SCT038 OVC047 19/13 Q1015
11:30
M
19 °C 10 km+ 2.800 ft 250° 250° 11 kt METAR LFRT 160930Z AUTO 25011KT 9999 BKN028 BKN035 OVC041 19/13 Q1014
11:00
M
18 °C 10 km+ 2.500 ft 260° 260° 11 kt METAR LFRT 160900Z AUTO 26011KT 230V290 9999 BKN025 BKN032 18/13 Q1014
10:30
M
18 °C 10 km+ 2.000 ft 260° 260° 11 kt METAR LFRT 160830Z AUTO 26011KT 230V290 9999 BKN020 18/13 Q1014
10:00
V
17 °C 10 km+ - 250° 250° 13 kt METAR LFRT 160800Z AUTO 25013KT 9999 SCT016 17/13 Q1013
09:30
V
17 °C 10 km+ - 240° 240° 12 kt METAR LFRT 160730Z AUTO 24012KT 9999 FEW015 SCT045 17/14 Q1013
09:00
V
16 °C 10 km+ 4.400 ft 250° 250° 11 kt METAR LFRT 160700Z AUTO 25011KT 9999 FEW014 OVC044 16/14 Q1013
08:30
V
16 °C 10 km+ 4.000 ft 240° 240° 11 kt METAR LFRT 160630Z AUTO 24011KT 9999 BKN040 16/14 Q1013
08:00
V
15 °C 10 km+ - 240° 240° 10 kt METAR LFRT 160600Z AUTO 24010KT CAVOK 15/13 Q1012
Segnala modifiche